PWSweather.com
Personal Weather Stations
Station Observations
JEDRZEJOW
Kielce, JedrzejowPL 28-300

KielceJedrzejowPL 28-300

Lat: 50.64416885, Lon: 20.30450058

Elevation: 790

Station Type: WH1080

Latest ConditionsUpdated 6:30:00 PM GMT+01:01 Friday, Nov 17, 2017
Currently Today's Max Today's Min Today's Average
Temperature 41.2°F5.1°C 43.0°F6.1°C 32.9°F0.5°C 37.9°F3.3°C
Dew Point 38.8°F3.8°C 40.8°F4.9°C 29.7°F-1.3°C 35.4°F1.9°C
Winds 1.0 mph NW1.6 kmh NW 2.1 mph SE3.4 kmh SE - 0.9 mph 1.4 kmh
Wind Gusts 3.1 mph5.0 kmh 5.4 mph8.7 kmh - -
Humidity 91% 93% 88% 91%
Pressure 30.15 in1021.0 mb 30.19 in1022.4 mb 30.13 in1020.3 mb -
Precipitation - 0.06 in1.5 mm - -
Hour Temp Dew Point Humidity Winds Wind Gusts Pressure Precip Precip Rate Daily Precip Total
06:30 PM 41.2°F5.1°C 38.8°F3.8°C 91% 1.0 mph NW1.6 kmh NW 3.1 mph5.0 kmh 30.15 in1021.0 mb 0.00 in0.0 mm 0.00 in0.0 mm 0.06 in1.5 mm
06:15 PM 41.0°F5.0°C 38.6°F3.7°C 91% 0.4 mph W0.6 kmh W 2.2 mph3.5 kmh 30.15 in1021.0 mb 0.00 in0.0 mm 0.00 in0.0 mm 0.06 in1.5 mm
06:00 PM 40.8°F4.9°C 38.4°F3.6°C 91% 0.7 mph NW1.1 kmh NW 2.2 mph3.5 kmh 30.15 in1021.0 mb 0.00 in0.0 mm 0.00 in0.0 mm 0.06 in1.5 mm
05:45 PM 41.0°F5.0°C 38.6°F3.7°C 91% 1.0 mph NW1.6 kmh NW 2.2 mph3.5 kmh 30.15 in1021.0 mb 0.00 in0.0 mm 0.00 in0.0 mm 0.06 in1.5 mm
05:30 PM 40.8°F4.9°C 38.4°F3.6°C 91% 0.9 mph WNW1.4 kmh WNW 2.2 mph3.5 kmh 30.15 in1021.0 mb 0.00 in0.0 mm 0.00 in0.0 mm 0.06 in1.5 mm
05:15 PM 40.8°F4.9°C 38.4°F3.6°C 91% 0.5 mph WNW0.8 kmh WNW 2.2 mph3.5 kmh 30.15 in1021.0 mb 0.00 in0.0 mm 0.00 in0.0 mm 0.06 in1.5 mm
05:00 PM 41.0°F5.0°C 38.6°F3.7°C 91% 0.7 mph W1.1 kmh W 3.1 mph5.0 kmh 30.14 in1020.7 mb 0.00 in0.0 mm 0.00 in0.0 mm 0.06 in1.5 mm
04:45 PM 41.2°F5.1°C 38.5°F3.6°C 90% 0.4 mph NW0.6 kmh NW 2.2 mph3.5 kmh 30.15 in1021.0 mb 0.00 in0.0 mm 0.00 in0.0 mm 0.06 in1.5 mm
04:30 PM 41.2°F5.1°C 38.5°F3.6°C 90% 0.9 mph WNW1.4 kmh WNW 2.2 mph3.5 kmh 30.15 in1021.0 mb 0.00 in0.0 mm 0.00 in0.0 mm 0.06 in1.5 mm
04:15 PM 41.4°F5.2°C 38.6°F3.7°C 90% 0.1 mph WSW0.2 kmh WSW 1.6 mph2.6 kmh 30.14 in1020.7 mb 0.00 in0.0 mm 0.00 in0.0 mm 0.06 in1.5 mm
04:00 PM 41.9°F5.5°C 39.2°F4.0°C 90% 0.4 mph SW0.6 kmh SW 2.2 mph3.5 kmh 30.14 in1020.7 mb 0.00 in0.0 mm 0.00 in0.0 mm 0.06 in1.5 mm
03:45 PM 42.3°F5.7°C 39.8°F4.3°C 91% 1.5 mph W2.4 kmh W 4.5 mph7.2 kmh 30.14 in1020.7 mb 0.00 in0.0 mm 0.00 in0.0 mm 0.06 in1.5 mm
03:30 PM 42.6°F5.9°C 40.2°F4.6°C 91% 1.1 mph WSW1.8 kmh WSW 3.8 mph6.1 kmh 30.14 in1020.7 mb 0.00 in0.0 mm 0.00 in0.0 mm 0.06 in1.5 mm
03:15 PM 42.8°F6.0°C 40.4°F4.7°C 91% 0.8 mph SW1.3 kmh SW 2.2 mph3.5 kmh 30.14 in1020.7 mb 0.00 in0.0 mm 0.00 in0.0 mm 0.06 in1.5 mm
03:00 PM 42.8°F6.0°C 40.4°F4.7°C 91% 0.4 mph WSW0.6 kmh WSW 2.2 mph3.5 kmh 30.14 in1020.7 mb 0.00 in0.0 mm 0.00 in0.0 mm 0.06 in1.5 mm
02:45 PM 42.8°F6.0°C 40.4°F4.7°C 91% 1.0 mph W1.6 kmh W 3.1 mph5.0 kmh 30.14 in1020.7 mb 0.00 in0.0 mm 0.00 in0.0 mm 0.06 in1.5 mm
02:30 PM 42.8°F6.0°C 40.4°F4.7°C 91% 1.6 mph W2.6 kmh W 4.5 mph7.2 kmh 30.14 in1020.7 mb 0.00 in0.0 mm 0.00 in0.0 mm 0.06 in1.5 mm
02:15 PM 42.8°F6.0°C 40.6°F4.8°C 92% 1.0 mph WSW1.6 kmh WSW 3.1 mph5.0 kmh 30.14 in1020.7 mb 0.00 in0.0 mm 0.00 in0.0 mm 0.06 in1.5 mm
02:00 PM 43.0°F6.1°C 40.8°F4.9°C 92% 0.9 mph WSW1.4 kmh WSW 3.1 mph5.0 kmh 30.14 in1020.7 mb 0.00 in0.0 mm 0.00 in0.0 mm 0.06 in1.5 mm
01:45 PM 42.6°F5.9°C 40.5°F4.7°C 92% 0.7 mph WSW1.1 kmh WSW 3.8 mph6.1 kmh 30.14 in1020.7 mb 0.00 in0.0 mm 0.00 in0.0 mm 0.06 in1.5 mm
01:30 PM 42.6°F5.9°C 40.7°F4.8°C 93% 1.8 mph WSW2.9 kmh WSW 3.8 mph6.1 kmh 30.14 in1020.7 mb 0.00 in0.0 mm 0.00 in0.0 mm 0.06 in1.5 mm
01:15 PM 42.4°F5.8°C 40.6°F4.8°C 93% 2.1 mph WSW3.4 kmh WSW 5.4 mph8.7 kmh 30.14 in1020.7 mb 0.01 in0.3 mm 0.00 in0.0 mm 0.06 in1.5 mm
01:00 PM 42.3°F5.7°C 40.4°F4.7°C 93% 1.3 mph WNW2.1 kmh WNW 4.5 mph7.2 kmh 30.14 in1020.7 mb 0.01 in0.3 mm 0.00 in0.0 mm 0.06 in1.5 mm
12:45 PM 42.1°F5.6°C 40.2°F4.6°C 93% 1.7 mph NNW2.7 kmh NNW 3.8 mph6.1 kmh 30.14 in1020.7 mb 0.01 in0.3 mm 0.00 in0.0 mm 0.06 in1.5 mm
12:30 PM 41.7°F5.4°C 39.8°F4.3°C 93% 1.2 mph W1.9 kmh W 3.8 mph6.1 kmh 30.14 in1020.7 mb 0.01 in0.3 mm 0.04 in1.0 mm 0.06 in1.5 mm
12:15 PM 41.5°F5.3°C 39.7°F4.3°C 93% 0.8 mph WSW1.3 kmh WSW 3.8 mph6.1 kmh 30.14 in1020.7 mb 0.00 in0.0 mm 0.00 in0.0 mm 0.05 in1.3 mm
12:00 PM 40.8°F4.9°C 38.7°F3.7°C 92% 0.4 mph SW0.6 kmh SW 2.2 mph3.5 kmh 30.14 in1020.7 mb 0.00 in0.0 mm 0.00 in0.0 mm 0.05 in1.3 mm
11:45 AM 40.1°F4.5°C 38.0°F3.3°C 92% 0.3 mph S0.5 kmh S 1.6 mph2.6 kmh 30.15 in1021.0 mb 0.00 in0.0 mm 0.00 in0.0 mm 0.05 in1.3 mm
11:30 AM 39.4°F4.1°C 37.2°F2.9°C 92% 0.4 mph SSE0.6 kmh SSE 1.6 mph2.6 kmh 30.14 in1020.7 mb 0.00 in0.0 mm 0.00 in0.0 mm 0.05 in1.3 mm
11:15 AM 39.0°F3.9°C 36.6°F2.6°C 91% 1.0 mph SSE1.6 kmh SSE 3.1 mph5.0 kmh 30.15 in1021.0 mb 0.00 in0.0 mm 0.00 in0.0 mm 0.05 in1.3 mm
11:00 AM 38.7°F3.7°C 36.3°F2.4°C 91% 0.6 mph SE1.0 kmh SE 2.2 mph3.5 kmh 30.15 in1021.0 mb 0.00 in0.0 mm 0.00 in0.0 mm 0.05 in1.3 mm
10:45 AM 38.5°F3.6°C 36.1°F2.3°C 91% 0.6 mph SE1.0 kmh SE 2.2 mph3.5 kmh 30.15 in1021.0 mb 0.01 in0.3 mm 0.00 in0.0 mm 0.05 in1.3 mm
10:30 AM 38.1°F3.4°C 35.7°F2.1°C 91% 0.3 mph SE0.5 kmh SE 1.6 mph2.6 kmh 30.15 in1021.0 mb 0.01 in0.3 mm 0.00 in0.0 mm 0.05 in1.3 mm
10:15 AM 37.9°F3.3°C 35.5°F1.9°C 91% 0.7 mph SE1.1 kmh SE 2.2 mph3.5 kmh 30.15 in1021.0 mb 0.02 in0.5 mm 0.00 in0.0 mm 0.05 in1.3 mm
10:00 AM 37.9°F3.3°C 35.5°F1.9°C 91% 1.4 mph SE2.3 kmh SE 3.1 mph5.0 kmh 30.15 in1021.0 mb 0.04 in1.0 mm 0.03 in0.8 mm 0.05 in1.3 mm
09:45 AM 37.6°F3.1°C 35.2°F1.8°C 91% 0.7 mph SSE1.1 kmh SSE 3.1 mph5.0 kmh 30.14 in1020.7 mb 0.02 in0.5 mm 0.00 in0.0 mm 0.04 in1.0 mm
09:30 AM 37.2°F2.9°C 34.8°F1.6°C 91% 1.4 mph SE2.3 kmh SE 3.1 mph5.0 kmh 30.15 in1021.0 mb 0.02 in0.5 mm 0.04 in1.0 mm 0.04 in1.0 mm
09:15 AM 37.0°F2.8°C 34.7°F1.5°C 91% 1.7 mph SE2.7 kmh SE 3.8 mph6.1 kmh 30.14 in1020.7 mb 0.01 in0.3 mm 0.04 in1.0 mm 0.02 in0.5 mm
09:00 AM 36.9°F2.7°C 34.2°F1.2°C 90% 1.9 mph SE3.1 kmh SE 3.1 mph5.0 kmh 30.14 in1020.7 mb 0.00 in0.0 mm 0.00 in0.0 mm 0.01 in0.3 mm
08:45 AM 36.5°F2.5°C 33.8°F1.0°C 90% 2.1 mph SE3.4 kmh SE 3.8 mph6.1 kmh 30.14 in1020.7 mb 0.00 in0.0 mm 0.00 in0.0 mm 0.01 in0.3 mm
08:30 AM 36.3°F2.4°C 33.7°F0.9°C 90% 1.1 mph SE1.8 kmh SE 3.1 mph5.0 kmh 30.14 in1020.7 mb 0.00 in0.0 mm 0.00 in0.0 mm 0.01 in0.3 mm
08:15 AM 36.0°F2.2°C 33.3°F0.7°C 90% 0.7 mph SE1.1 kmh SE 2.2 mph3.5 kmh 30.13 in1020.3 mb 0.00 in0.0 mm 0.00 in0.0 mm 0.01 in0.3 mm
08:00 AM 35.8°F2.1°C 33.1°F0.6°C 90% 1.2 mph SSE1.9 kmh SSE 2.2 mph3.5 kmh 30.14 in1020.7 mb 0.00 in0.0 mm 0.00 in0.0 mm 0.01 in0.3 mm
07:45 AM 35.6°F2.0°C 33.0°F0.6°C 90% 1.6 mph SE2.6 kmh SE 3.1 mph5.0 kmh 30.13 in1020.3 mb 0.00 in0.0 mm 0.00 in0.0 mm 0.01 in0.3 mm
07:30 AM 35.6°F2.0°C 33.0°F0.6°C 90% 1.4 mph SE2.3 kmh SE 3.8 mph6.1 kmh 30.14 in1020.7 mb 0.01 in0.3 mm 0.00 in0.0 mm 0.01 in0.3 mm
07:15 AM 35.4°F1.9°C 32.8°F0.4°C 90% 1.3 mph SE2.1 kmh SE 3.1 mph5.0 kmh 30.14 in1020.7 mb 0.01 in0.3 mm 0.00 in0.0 mm 0.01 in0.3 mm
07:00 AM 35.2°F1.8°C 32.6°F0.3°C 90% 0.7 mph SE1.1 kmh SE 2.2 mph3.5 kmh 30.14 in1020.7 mb 0.01 in0.3 mm 0.00 in0.0 mm 0.01 in0.3 mm
06:45 AM 35.2°F1.8°C 32.6°F0.3°C 90% 0.8 mph SE1.3 kmh SE 2.2 mph3.5 kmh 30.14 in1020.7 mb 0.01 in0.3 mm 0.04 in1.0 mm 0.01 in0.3 mm
06:30 AM 35.1°F1.7°C 32.4°F0.2°C 90% 1.0 mph SE1.6 kmh SE 2.2 mph3.5 kmh 30.14 in1020.7 mb 0.00 in0.0 mm 0.00 in0.0 mm 0.00 in0.0 mm
06:15 AM 35.1°F1.7°C 32.4°F0.2°C 90% 0.8 mph SE1.3 kmh SE 2.2 mph3.5 kmh 30.14 in1020.7 mb 0.00 in0.0 mm 0.00 in0.0 mm 0.00 in0.0 mm
06:00 AM 35.1°F1.7°C 32.4°F0.2°C 90% 1.1 mph SE1.8 kmh SE 2.2 mph3.5 kmh 30.14 in1020.7 mb 0.00 in0.0 mm 0.00 in0.0 mm 0.00 in0.0 mm
05:45 AM 35.1°F1.7°C 32.4°F0.2°C 90% 0.8 mph SE1.3 kmh SE 2.2 mph3.5 kmh 30.14 in1020.7 mb 0.00 in0.0 mm 0.00 in0.0 mm 0.00 in0.0 mm
05:30 AM 35.1°F1.7°C 32.4°F0.2°C 90% 0.8 mph SE1.3 kmh SE 2.2 mph3.5 kmh 30.14 in1020.7 mb 0.00 in0.0 mm 0.00 in0.0 mm 0.00 in0.0 mm
05:15 AM 34.9°F1.6°C 32.2°F0.1°C 90% 1.7 mph SE2.7 kmh SE 3.8 mph6.1 kmh 30.14 in1020.7 mb 0.00 in0.0 mm 0.00 in0.0 mm 0.00 in0.0 mm
05:00 AM 34.9°F1.6°C 32.5°F0.3°C 91% 1.4 mph SE2.3 kmh SE 2.2 mph3.5 kmh 30.14 in1020.7 mb 0.00 in0.0 mm 0.00 in0.0 mm 0.00 in0.0 mm
04:45 AM 34.9°F1.6°C 32.5°F0.3°C 91% 0.6 mph E1.0 kmh E 3.1 mph5.0 kmh 30.14 in1020.7 mb 0.00 in0.0 mm 0.00 in0.0 mm 0.00 in0.0 mm
04:30 AM 34.9°F1.6°C 32.5°F0.3°C 91% 1.3 mph SE2.1 kmh SE 2.2 mph3.5 kmh 30.15 in1021.0 mb 0.00 in0.0 mm 0.00 in0.0 mm 0.00 in0.0 mm
04:15 AM 34.9°F1.6°C 32.5°F0.3°C 91% 1.4 mph SE2.3 kmh SE 3.1 mph5.0 kmh 30.15 in1021.0 mb 0.00 in0.0 mm 0.00 in0.0 mm 0.00 in0.0 mm
04:00 AM 34.9°F1.6°C 32.5°F0.3°C 91% 1.1 mph NE1.8 kmh NE 3.1 mph5.0 kmh 30.15 in1021.0 mb 0.00 in0.0 mm 0.00 in0.0 mm 0.00 in0.0 mm
03:45 AM 34.7°F1.5°C 32.3°F0.2°C 91% 0.3 mph NE0.5 kmh NE 1.6 mph2.6 kmh 30.15 in1021.0 mb 0.00 in0.0 mm 0.00 in0.0 mm 0.00 in0.0 mm
03:30 AM 34.7°F1.5°C 32.3°F0.2°C 91% 1.0 mph SE1.6 kmh SE 2.2 mph3.5 kmh 30.16 in1021.3 mb 0.00 in0.0 mm 0.00 in0.0 mm 0.00 in0.0 mm
03:15 AM 34.5°F1.4°C 31.9°F-0.1°C 90% 0.2 mph ESE0.3 kmh ESE 1.6 mph2.6 kmh 30.16 in1021.3 mb 0.00 in0.0 mm 0.00 in0.0 mm 0.00 in0.0 mm
03:00 AM 34.3°F1.3°C 31.7°F-0.2°C 90% 0.2 mph ESE0.3 kmh ESE 1.6 mph2.6 kmh 30.16 in1021.3 mb 0.00 in0.0 mm 0.00 in0.0 mm 0.00 in0.0 mm
02:45 AM 34.3°F1.3°C 31.7°F-0.2°C 90% 0.1 mph NE0.2 kmh NE 1.6 mph2.6 kmh 30.16 in1021.3 mb 0.00 in0.0 mm 0.00 in0.0 mm 0.00 in0.0 mm
02:30 AM 34.3°F1.3°C 31.7°F-0.2°C 90% 0.3 mph ESE0.5 kmh ESE 2.2 mph3.5 kmh 30.16 in1021.3 mb 0.00 in0.0 mm 0.00 in0.0 mm 0.00 in0.0 mm
02:15 AM 34.3°F1.3°C 31.7°F-0.2°C 90% Calm Calm 1.6 mph2.6 kmh 30.17 in1021.7 mb 0.00 in0.0 mm 0.00 in0.0 mm 0.00 in0.0 mm
02:00 AM 34.2°F1.2°C 31.5°F-0.3°C 90% 0.3 mph SE0.5 kmh SE 2.2 mph3.5 kmh 30.17 in1021.7 mb 0.00 in0.0 mm 0.00 in0.0 mm 0.00 in0.0 mm
01:45 AM 34.3°F1.3°C 31.7°F-0.2°C 90% 0.7 mph ESE1.1 kmh ESE 3.1 mph5.0 kmh 30.17 in1021.7 mb 0.00 in0.0 mm 0.00 in0.0 mm 0.00 in0.0 mm
01:30 AM 34.2°F1.2°C 31.5°F-0.3°C 90% 1.0 mph E1.6 kmh E 3.1 mph5.0 kmh 30.17 in1021.7 mb 0.00 in0.0 mm 0.00 in0.0 mm 0.00 in0.0 mm
01:15 AM 34.0°F1.1°C 31.4°F-0.3°C 90% 0.5 mph SE0.8 kmh SE 1.6 mph2.6 kmh 30.18 in1022.0 mb 0.00 in0.0 mm 0.00 in0.0 mm 0.00 in0.0 mm
01:00 AM 34.0°F1.1°C 31.4°F-0.3°C 90% 0.4 mph ENE0.6 kmh ENE 2.2 mph3.5 kmh 30.18 in1022.0 mb 0.00 in0.0 mm 0.00 in0.0 mm 0.00 in0.0 mm
12:45 AM 33.8°F1.0°C 31.2°F-0.4°C 90% 0.8 mph E1.3 kmh E 3.1 mph5.0 kmh 30.18 in1022.0 mb 0.00 in0.0 mm 0.00 in0.0 mm 0.00 in0.0 mm
12:30 AM 33.6°F0.9°C 30.7°F-0.7°C 89% 0.1 mph SE0.2 kmh SE 1.6 mph2.6 kmh 30.19 in1022.4 mb 0.00 in0.0 mm 0.00 in0.0 mm 0.00 in0.0 mm
12:15 AM 33.4°F0.8°C 30.5°F-0.8°C 89% 0.8 mph NE1.3 kmh NE 3.1 mph5.0 kmh 30.19 in1022.4 mb 0.00 in0.0 mm 0.00 in0.0 mm 0.00 in0.0 mm
12:00 AM 32.9°F0.5°C 29.7°F-1.3°C 88% 0.9 mph E1.4 kmh E 2.2 mph3.5 kmh 30.19 in1022.4 mb 0.00 in0.0 mm 0.00 in0.0 mm 0.00 in0.0 mm